Time;durP1;ratioP1;P1;durP2;ratioP2;P2;SDS_P1;SDS_P2;PMS_P1;PMS_P2;Temp;Humidity;BMP_temperature;BMP_pressure;BME280_temperature;BME280_humidity;BME280_pressure;Samples;Min_cycle;Max_cycle;Signal;HPM_P1;HPM_P2
2022/12/14 00:00:40;;;;;;;14.90;12.83;;;;;;;;;;5087717;28;20451;-75
2022/12/14 00:03:07;;;;;;;17.40;13.60;;;;;;;;;;5088717;28;20455;-78
2022/12/14 00:05:34;;;;;;;19.97;13.37;;;;;;;;;;5087455;28;20459;-75
2022/12/14 00:08:02;;;;;;;19.23;13.70;;;;;;;;;;5082913;28;20467;-77
2022/12/14 00:10:29;;;;;;;16.47;14.43;;;;;;;;;;5081749;28;20447;-77
2022/12/14 00:12:57;;;;;;;17.30;13.20;;;;;;;;;;5089193;28;20444;-77
2022/12/14 00:15:24;;;;;;;20.83;14.07;;;;;;;;;;5084692;28;20437;-77
2022/12/14 00:17:52;;;;;;;18.27;13.90;;;;;;;;;;5083866;28;20447;-77
2022/12/14 00:20:19;;;;;;;18.00;13.40;;;;;;;;;;5092306;28;20440;-77
2022/12/14 00:22:46;;;;;;;18.83;14.50;;;;;;;;;;5082119;28;20450;-77
2022/12/14 00:25:13;;;;;;;18.03;14.03;;;;;;;;;;5077351;28;20927;-76
2022/12/14 00:27:43;;;;;;;16.70;13.40;;;;;;;;;;5083161;28;20472;-77
2022/12/14 00:30:12;;;;;;;16.67;13.37;;;;;;;;;;5090390;28;20805;-76
2022/12/14 00:32:39;;;;;;;20.70;14.50;;;;;;;;;;5090338;28;20443;-76
2022/12/14 00:35:08;;;;;;;17.37;13.23;;;;;;;;;;5103341;28;20500;-74
2022/12/14 00:37:35;;;;;;;18.60;14.37;;;;;;;;;;5103970;28;20440;-76
2022/12/14 00:40:02;;;;;;;18.53;14.70;;;;;;;;;;5084337;28;20439;-75
2022/12/14 00:42:30;;;;;;;17.90;14.10;;;;;;;;;;5095675;28;20450;-75
2022/12/14 00:44:57;;;;;;;19.27;15.13;;;;;;;;;;5095131;28;20951;-76
2022/12/14 00:47:25;;;;;;;19.00;14.83;;;;;;;;;;5095251;28;20927;-74
2022/12/14 00:49:52;;;;;;;17.13;14.73;;;;;;;;;;5094751;28;20455;-75
2022/12/14 00:52:19;;;;;;;22.37;16.23;;;;;;;;;;5087978;28;20449;-75
2022/12/14 00:54:46;;;;;;;18.40;14.00;;;;;;;;;;5091662;28;20473;-76
2022/12/14 00:57:13;;;;;;;16.77;13.50;;;;;;;;;;5102824;28;20460;-76
2022/12/14 00:59:40;;;;;;;20.40;14.40;;;;;;;;;;5093707;28;20447;-76
2022/12/14 01:02:07;;;;;;;19.60;15.20;;;;;;;;;;5094220;28;20831;-76
2022/12/14 01:04:36;;;;;;;19.00;14.87;;;;;;;;;;5093732;28;20756;-75
2022/12/14 01:07:03;;;;;;;15.43;13.87;;;;;;;;;;5095649;28;20493;-75
2022/12/14 01:09:30;;;;;;;16.27;13.90;;;;;;;;;;5094953;28;20935;-74
2022/12/14 01:11:57;;;;;;;21.23;15.33;;;;;;;;;;5093943;28;20444;-75
2022/12/14 01:14:25;;;;;;;17.73;14.67;;;;;;;;;;5092874;28;20446;-75
2022/12/14 01:16:52;;;;;;;18.00;13.97;;;;;;;;;;5092681;28;20459;-75
2022/12/14 01:19:19;;;;;;;19.93;15.20;;;;;;;;;;5093070;28;20452;-76
2022/12/14 01:21:47;;;;;;;16.13;13.80;;;;;;;;;;5095452;28;20440;-75
2022/12/14 01:24:14;;;;;;;16.73;13.80;;;;;;;;;;5093776;28;20451;-76
2022/12/14 01:26:41;;;;;;;18.80;14.47;;;;;;;;;;5093821;28;20476;-75
2022/12/14 01:29:08;;;;;;;19.50;15.80;;;;;;;;;;5093470;28;20451;-75
2022/12/14 01:31:37;;;;;;;16.50;14.70;;;;;;;;;;5087721;28;20805;-75
2022/12/14 01:34:06;;;;;;;17.53;15.63;;;;;;;;;;5075424;28;20475;-76
2022/12/14 01:36:34;;;;;;;20.30;14.80;;;;;;;;;;5092176;28;20464;-74
2022/12/14 01:39:04;;;;;;;21.50;14.23;;;;;;;;;;5092272;28;20436;-75
2022/12/14 01:41:32;;;;;;;18.83;14.50;;;;;;;;;;5092200;28;20451;-75
2022/12/14 01:44:00;;;;;;;20.53;14.57;;;;;;;;;;5091427;28;20479;-75
2022/12/14 01:46:29;;;;;;;15.10;13.60;;;;;;;;;;5092464;28;20459;-76
2022/12/14 01:48:59;;;;;;;19.30;14.63;;;;;;;;;;5091728;28;20958;-75
2022/12/14 01:51:27;;;;;;;17.13;14.23;;;;;;;;;;5092182;28;20528;-75
2022/12/14 01:53:55;;;;;;;18.67;14.67;;;;;;;;;;5091781;28;20954;-75
2022/12/14 01:56:23;;;;;;;15.97;13.80;;;;;;;;;;5092114;28;20460;-76
2022/12/14 01:58:51;;;;;;;15.50;13.87;;;;;;;;;;5091650;28;20448;-75
2022/12/14 02:01:18;;;;;;;16.63;14.63;;;;;;;;;;5092024;28;20540;-76
2022/12/14 02:03:46;;;;;;;17.00;14.20;;;;;;;;;;5091188;28;20566;-76
2022/12/14 02:06:18;;;;;;;16.70;13.83;;;;;;;;;;5091383;28;20463;-76
2022/12/14 02:08:47;;;;;;;18.20;14.90;;;;;;;;;;5091310;28;20443;-75
2022/12/14 02:11:14;;;;;;;18.60;14.87;;;;;;;;;;5091151;28;20447;-75
2022/12/14 02:13:43;;;;;;;16.83;14.80;;;;;;;;;;5090862;28;20439;-77
2022/12/14 02:16:10;;;;;;;17.40;14.93;;;;;;;;;;5091520;28;20475;-74
2022/12/14 02:18:37;;;;;;;19.87;15.70;;;;;;;;;;5091290;28;20443;-75
2022/12/14 02:21:17;;;;;;;18.03;14.23;;;;;;;;;;5092040;28;20451;-76
2022/12/14 02:23:55;;;;;;;16.90;15.07;;;;;;;;;;5103911;28;20444;-76
2022/12/14 02:26:42;;;;;;;17.73;14.97;;;;;;;;;;5103352;28;20459;-76
2022/12/14 02:29:33;;;;;;;17.50;14.20;;;;;;;;;;5093428;28;20444;-75
2022/12/14 02:32:10;;;;;;;19.90;14.83;;;;;;;;;;5091533;28;20444;-75
2022/12/14 02:34:44;;;;;;;19.37;14.53;;;;;;;;;;5091174;28;20431;-75
2022/12/14 02:37:13;;;;;;;19.30;14.87;;;;;;;;;;5091175;28;20451;-75
2022/12/14 02:39:42;;;;;;;19.00;15.93;;;;;;;;;;5091288;28;20432;-75
2022/12/14 02:42:10;;;;;;;19.93;15.83;;;;;;;;;;5091512;28;20439;-75
2022/12/14 02:44:41;;;;;;;22.70;16.13;;;;;;;;;;5090782;28;20474;-77
2022/12/14 02:47:13;;;;;;;20.20;15.60;;;;;;;;;;5091359;28;20849;-76
2022/12/14 02:49:46;;;;;;;16.37;14.67;;;;;;;;;;5091307;28;20459;-76
2022/12/14 02:52:14;;;;;;;19.73;15.43;;;;;;;;;;5091088;28;20444;-76
2022/12/14 02:54:45;;;;;;;21.53;16.17;;;;;;;;;;5090966;28;20455;-76
2022/12/14 02:57:16;;;;;;;18.10;15.20;;;;;;;;;;5091294;28;20544;-75
2022/12/14 02:59:44;;;;;;;21.03;16.50;;;;;;;;;;5094048;28;20452;-75
2022/12/14 03:02:13;;;;;;;21.10;16.93;;;;;;;;;;5091267;28;20451;-75
2022/12/14 03:04:44;;;;;;;21.20;17.37;;;;;;;;;;5090544;28;20463;-75
2022/12/14 03:07:27;;;;;;;19.93;16.13;;;;;;;;;;5090829;28;20488;-76
2022/12/14 03:09:54;;;;;;;20.20;15.80;;;;;;;;;;5091167;28;20447;-75
2022/12/14 03:12:22;;;;;;;20.33;15.23;;;;;;;;;;5090711;28;20439;-76
2022/12/14 03:14:51;;;;;;;21.33;17.90;;;;;;;;;;5077039;28;20448;-76
2022/12/14 03:17:21;;;;;;;20.90;16.80;;;;;;;;;;5070186;28;20478;-76
2022/12/14 03:19:49;;;;;;;21.07;16.77;;;;;;;;;;5070434;28;20441;-77
2022/12/14 03:22:17;;;;;;;19.30;16.77;;;;;;;;;;5069967;28;20924;-76
2022/12/14 03:24:48;;;;;;;21.87;17.33;;;;;;;;;;5070060;28;20449;-75
2022/12/14 03:27:17;;;;;;;19.93;16.43;;;;;;;;;;5069961;28;20507;-77
2022/12/14 03:29:46;;;;;;;19.77;16.10;;;;;;;;;;5070244;28;20781;-76
2022/12/14 03:32:14;;;;;;;22.73;17.20;;;;;;;;;;5069955;28;20452;-76
2022/12/14 03:34:46;;;;;;;26.30;21.03;;;;;;;;;;5069583;28;21110;-75
2022/12/14 03:37:16;;;;;;;23.03;17.77;;;;;;;;;;5070320;28;20456;-77
2022/12/14 03:39:44;;;;;;;25.97;18.37;;;;;;;;;;5070405;28;20445;-75
2022/12/14 03:42:15;;;;;;;25.10;17.80;;;;;;;;;;5069914;28;20943;-76
2022/12/14 03:44:46;;;;;;;21.27;16.83;;;;;;;;;;5070000;28;20821;-77
2022/12/14 03:47:19;;;;;;;22.80;17.93;;;;;;;;;;5069935;28;20488;-76
2022/12/14 03:49:54;;;;;;;24.10;17.60;;;;;;;;;;5070048;28;20436;-76
2022/12/14 03:52:23;;;;;;;22.20;18.00;;;;;;;;;;5069908;28;20542;-76
2022/12/14 03:54:55;;;;;;;21.63;18.80;;;;;;;;;;5069330;28;20444;-75
2022/12/14 03:57:28;;;;;;;22.90;18.47;;;;;;;;;;5069421;28;20987;-76
2022/12/14 04:00:00;;;;;;;22.67;17.40;;;;;;;;;;5069735;28;20456;-75
2022/12/14 04:02:30;;;;;;;22.83;18.10;;;;;;;;;;5071088;28;20433;-74
2022/12/14 04:05:02;;;;;;;24.90;18.30;;;;;;;;;;5070973;28;20441;-75
2022/12/14 04:07:34;;;;;;;20.77;17.80;;;;;;;;;;5070047;28;20503;-76
2022/12/14 04:10:02;;;;;;;22.00;18.50;;;;;;;;;;5069621;28;20440;-75
2022/12/14 04:20:54;;;;;;;23.37;17.57;;;;;;;;;;5094008;28;20422;-77
2022/12/14 04:26:05;;;;;;;22.57;17.33;;;;;;;;;;5095853;28;20439;-77
2022/12/14 04:31:21;;;;;;;25.00;17.57;;;;;;;;;;5086744;28;20454;-74
2022/12/14 04:33:50;;;;;;;24.07;18.27;;;;;;;;;;5093699;28;20432;-75
2022/12/14 04:36:22;;;;;;;24.23;19.70;;;;;;;;;;5094361;28;20468;-74
2022/12/14 04:38:51;;;;;;;24.90;18.57;;;;;;;;;;5080474;28;20441;-75
2022/12/14 04:41:20;;;;;;;26.40;20.10;;;;;;;;;;5092780;28;20432;-75
2022/12/14 04:43:49;;;;;;;27.23;18.17;;;;;;;;;;5093880;28;20444;-75
2022/12/14 04:46:17;;;;;;;29.13;18.40;;;;;;;;;;5094023;28;20475;-76
2022/12/14 04:48:47;;;;;;;23.97;18.47;;;;;;;;;;5094090;28;20482;-74
2022/12/14 04:51:16;;;;;;;24.77;19.37;;;;;;;;;;5094512;28;20432;-75
2022/12/14 04:53:46;;;;;;;22.90;17.50;;;;;;;;;;5094337;28;20436;-76
2022/12/14 04:56:18;;;;;;;22.60;17.60;;;;;;;;;;5097078;28;20466;-74
2022/12/14 04:58:45;;;;;;;24.60;18.30;;;;;;;;;;5102648;28;20928;-75
2022/12/14 05:01:17;;;;;;;22.90;18.70;;;;;;;;;;5102294;28;20428;-75
2022/12/14 05:03:49;;;;;;;26.30;19.20;;;;;;;;;;5098996;28;20454;-76
2022/12/14 05:06:19;;;;;;;22.00;17.97;;;;;;;;;;5093887;28;20497;-76
2022/12/14 05:09:07;;;;;;;22.03;18.70;;;;;;;;;;5093881;28;20547;-76
2022/12/14 05:11:39;;;;;;;24.80;19.40;;;;;;;;;;5086843;28;20501;-75
2022/12/14 05:14:09;;;;;;;26.00;19.23;;;;;;;;;;5093652;28;20416;-76
2022/12/14 05:16:37;;;;;;;25.77;20.33;;;;;;;;;;5093383;28;20474;-76
2022/12/14 05:19:07;;;;;;;26.80;18.70;;;;;;;;;;5093776;28;20439;-76
2022/12/14 05:21:50;;;;;;;27.20;19.67;;;;;;;;;;5094154;28;20435;-76
2022/12/14 05:24:17;;;;;;;25.13;20.40;;;;;;;;;;5092974;28;21092;-75
2022/12/14 05:26:45;;;;;;;25.80;19.20;;;;;;;;;;5093136;28;20460;-76
2022/12/14 05:29:13;;;;;;;23.63;19.30;;;;;;;;;;5092874;28;20772;-75
2022/12/14 05:31:40;;;;;;;22.40;18.30;;;;;;;;;;5093324;28;20917;-76
2022/12/14 05:34:08;;;;;;;26.63;19.33;;;;;;;;;;5100338;28;20438;-75
2022/12/14 05:36:35;;;;;;;22.90;18.50;;;;;;;;;;5109928;28;20485;-76
2022/12/14 05:39:02;;;;;;;24.23;19.33;;;;;;;;;;5110382;28;20436;-74
2022/12/14 05:41:29;;;;;;;25.37;19.23;;;;;;;;;;5109607;28;20462;-75
2022/12/14 05:43:57;;;;;;;25.80;19.87;;;;;;;;;;5104345;28;20435;-76
2022/12/14 05:46:24;;;;;;;28.57;20.60;;;;;;;;;;5094511;28;20467;-74
2022/12/14 05:48:52;;;;;;;26.67;20.50;;;;;;;;;;5093245;28;20483;-76
2022/12/14 05:51:19;;;;;;;27.83;20.30;;;;;;;;;;5093049;28;20470;-75
2022/12/14 05:53:46;;;;;;;21.67;18.60;;;;;;;;;;5092434;28;20446;-76
2022/12/14 05:56:13;;;;;;;25.13;20.13;;;;;;;;;;5092742;28;20474;-74
2022/12/14 05:58:40;;;;;;;26.93;20.10;;;;;;;;;;5093098;28;20450;-76
2022/12/14 06:01:10;;;;;;;26.03;19.80;;;;;;;;;;5092686;28;20943;-76
2022/12/14 06:03:37;;;;;;;28.70;21.57;;;;;;;;;;5092244;28;20451;-77
2022/12/14 06:06:05;;;;;;;24.63;20.80;;;;;;;;;;5092785;28;20471;-77
2022/12/14 06:08:33;;;;;;;26.87;22.47;;;;;;;;;;5093646;28;20479;-76
2022/12/14 06:11:04;;;;;;;28.37;22.00;;;;;;;;;;5093737;28;20500;-75
2022/12/14 06:13:31;;;;;;;28.97;23.10;;;;;;;;;;5093063;28;20436;-76
2022/12/14 06:16:08;;;;;;;31.00;22.17;;;;;;;;;;5094230;28;20460;-75
2022/12/14 06:18:35;;;;;;;28.07;22.87;;;;;;;;;;5095959;28;20489;-76
2022/12/14 06:21:02;;;;;;;28.30;21.73;;;;;;;;;;5096866;28;20440;-75
2022/12/14 06:23:29;;;;;;;32.57;22.87;;;;;;;;;;5095087;28;20444;-74
2022/12/14 06:25:57;;;;;;;26.00;22.57;;;;;;;;;;5095293;28;20464;-74
2022/12/14 06:28:24;;;;;;;32.47;22.10;;;;;;;;;;5093472;28;20471;-76
2022/12/14 06:30:51;;;;;;;32.20;21.80;;;;;;;;;;5092927;28;20439;-76
2022/12/14 06:33:19;;;;;;;28.40;23.40;;;;;;;;;;5092164;28;20439;-76
2022/12/14 06:35:47;;;;;;;29.07;23.73;;;;;;;;;;5091060;28;20460;-76
2022/12/14 06:38:14;;;;;;;30.50;23.53;;;;;;;;;;5092157;28;20447;-75
2022/12/14 06:40:41;;;;;;;30.07;22.80;;;;;;;;;;5091723;28;20896;-75
2022/12/14 06:43:09;;;;;;;28.07;24.30;;;;;;;;;;5090876;28;20444;-76
2022/12/14 06:45:36;;;;;;;33.50;25.60;;;;;;;;;;5091872;28;20464;-77
2022/12/14 06:48:03;;;;;;;41.30;29.00;;;;;;;;;;5092027;28;20775;-77
2022/12/14 06:50:31;;;;;;;31.80;24.63;;;;;;;;;;5091493;28;20454;-77
2022/12/14 06:52:58;;;;;;;35.27;24.60;;;;;;;;;;5111092;28;20449;-76
2022/12/14 06:55:26;;;;;;;31.50;25.23;;;;;;;;;;5112475;28;20474;-75
2022/12/14 06:57:54;;;;;;;35.40;26.40;;;;;;;;;;5113824;28;20446;-76
2022/12/14 07:00:22;;;;;;;33.03;24.03;;;;;;;;;;5112648;28;20520;-76
2022/12/14 07:02:49;;;;;;;34.37;25.10;;;;;;;;;;5111184;28;21280;-76
2022/12/14 07:05:16;;;;;;;32.73;25.53;;;;;;;;;;5111288;28;20930;-76
2022/12/14 07:07:44;;;;;;;30.53;24.27;;;;;;;;;;5112303;28;20447;-76
2022/12/14 07:10:12;;;;;;;40.00;24.33;;;;;;;;;;5112488;28;20831;-76
2022/12/14 07:12:39;;;;;;;36.00;23.83;;;;;;;;;;5120243;28;20981;-74
2022/12/14 07:15:07;;;;;;;32.50;24.57;;;;;;;;;;5105953;28;20440;-76
2022/12/14 07:17:35;;;;;;;31.43;25.13;;;;;;;;;;5098383;28;20440;-76
2022/12/14 07:20:03;;;;;;;31.93;24.00;;;;;;;;;;5096234;28;20444;-77
2022/12/14 07:22:30;;;;;;;36.63;23.23;;;;;;;;;;5100071;28;20478;-75
2022/12/14 07:24:58;;;;;;;42.87;26.40;;;;;;;;;;5094978;28;20443;-76
2022/12/14 07:27:25;;;;;;;46.57;25.63;;;;;;;;;;5092479;28;20463;-77
2022/12/14 07:29:52;;;;;;;35.90;23.83;;;;;;;;;;5093083;28;20475;-75
2022/12/14 07:32:19;;;;;;;33.97;23.90;;;;;;;;;;5090851;28;20448;-75
2022/12/14 07:34:46;;;;;;;35.83;25.80;;;;;;;;;;5091405;28;20467;-77
2022/12/14 07:37:14;;;;;;;33.53;24.73;;;;;;;;;;5090179;28;21016;-76
2022/12/14 07:39:41;;;;;;;33.03;24.43;;;;;;;;;;5090220;28;20436;-75
2022/12/14 07:42:09;;;;;;;35.43;26.00;;;;;;;;;;5090512;28;20442;-76
2022/12/14 07:44:36;;;;;;;35.63;24.20;;;;;;;;;;5089657;28;20455;-77
2022/12/14 07:47:03;;;;;;;35.50;25.17;;;;;;;;;;5090316;28;20475;-76
2022/12/14 07:49:30;;;;;;;33.00;25.00;;;;;;;;;;5090477;28;20475;-77
2022/12/14 07:51:57;;;;;;;35.90;24.60;;;;;;;;;;5090900;28;20450;-76
2022/12/14 07:54:25;;;;;;;35.80;24.33;;;;;;;;;;5090690;28;20480;-76
2022/12/14 07:56:52;;;;;;;34.47;25.10;;;;;;;;;;5091116;28;20523;-75
2022/12/14 07:59:20;;;;;;;32.97;25.97;;;;;;;;;;5090865;28;20689;-77
2022/12/14 08:01:48;;;;;;;39.23;25.60;;;;;;;;;;5090790;28;20439;-76
2022/12/14 08:04:16;;;;;;;31.50;24.40;;;;;;;;;;5090224;28;20500;-77
2022/12/14 08:06:45;;;;;;;31.17;24.70;;;;;;;;;;5091904;28;20460;-75
2022/12/14 08:09:12;;;;;;;37.80;25.80;;;;;;;;;;5090724;28;20842;-76
2022/12/14 08:11:40;;;;;;;29.03;23.20;;;;;;;;;;5091720;28;20459;-76
2022/12/14 08:14:08;;;;;;;32.80;25.47;;;;;;;;;;5096867;28;20439;-76
2022/12/14 08:16:37;;;;;;;35.13;25.87;;;;;;;;;;5092243;28;20487;-77
2022/12/14 08:19:04;;;;;;;32.43;25.00;;;;;;;;;;5091214;28;20831;-76
2022/12/14 08:21:31;;;;;;;32.03;25.97;;;;;;;;;;5100094;28;20455;-75
2022/12/14 08:23:59;;;;;;;33.93;25.00;;;;;;;;;;5094415;28;20917;-76
2022/12/14 08:26:26;;;;;;;39.57;26.23;;;;;;;;;;5095344;28;20456;-76
2022/12/14 08:28:54;;;;;;;33.87;25.27;;;;;;;;;;5080025;28;20995;-76
2022/12/14 08:31:23;;;;;;;34.93;24.17;;;;;;;;;;5090904;28;20435;-76
2022/12/14 08:33:52;;;;;;;31.57;25.37;;;;;;;;;;5110268;28;20964;-75
2022/12/14 08:36:21;;;;;;;32.87;25.27;;;;;;;;;;5125516;28;20470;-74
2022/12/14 08:38:52;;;;;;;42.50;27.47;;;;;;;;;;5123728;28;20510;-76
2022/12/14 08:41:19;;;;;;;41.43;29.60;;;;;;;;;;5112517;28;20434;-76
2022/12/14 08:43:49;;;;;;;40.67;27.43;;;;;;;;;;5110741;28;20434;-76
2022/12/14 08:46:16;;;;;;;34.47;26.53;;;;;;;;;;5110751;28;20469;-74
2022/12/14 08:48:43;;;;;;;34.77;25.80;;;;;;;;;;5111265;28;20475;-75
2022/12/14 08:51:12;;;;;;;33.80;25.87;;;;;;;;;;5110979;28;20966;-75
2022/12/14 08:53:39;;;;;;;34.20;27.00;;;;;;;;;;5111592;28;20446;-76
2022/12/14 08:56:07;;;;;;;35.70;27.70;;;;;;;;;;5110619;28;20471;-76
2022/12/14 08:58:34;;;;;;;40.33;27.87;;;;;;;;;;5112650;28;20465;-75
2022/12/14 09:01:02;;;;;;;33.90;25.03;;;;;;;;;;5114945;28;20459;-75
2022/12/14 09:03:29;;;;;;;34.33;26.23;;;;;;;;;;5115361;28;20443;-76
2022/12/14 09:05:57;;;;;;;34.20;27.13;;;;;;;;;;5116339;28;20595;-75
2022/12/14 09:08:25;;;;;;;39.80;27.67;;;;;;;;;;5119486;28;21010;-75
2022/12/14 09:10:53;;;;;;;37.83;28.57;;;;;;;;;;5116715;28;20453;-75
2022/12/14 09:13:20;;;;;;;37.90;27.33;;;;;;;;;;5113605;28;20446;-76
2022/12/14 09:15:47;;;;;;;34.57;27.43;;;;;;;;;;5095766;28;20464;-75
2022/12/14 09:18:14;;;;;;;36.40;27.57;;;;;;;;;;5094268;28;20440;-75
2022/12/14 09:20:43;;;;;;;33.30;26.43;;;;;;;;;;5094185;28;20447;-75
2022/12/14 09:23:10;;;;;;;40.17;30.37;;;;;;;;;;5093921;28;20443;-76
2022/12/14 09:25:39;;;;;;;36.63;28.60;;;;;;;;;;5093667;28;20994;-76
2022/12/14 09:28:06;;;;;;;39.60;28.43;;;;;;;;;;5093741;28;20494;-75
2022/12/14 09:30:33;;;;;;;42.70;29.60;;;;;;;;;;5093693;28;20490;-76
2022/12/14 09:33:00;;;;;;;40.50;30.00;;;;;;;;;;5093502;28;20827;-76
2022/12/14 09:35:27;;;;;;;35.70;28.50;;;;;;;;;;5094355;28;20468;-76
2022/12/14 09:37:54;;;;;;;40.17;28.33;;;;;;;;;;5094275;28;20470;-75
2022/12/14 09:40:23;;;;;;;37.70;28.30;;;;;;;;;;5093543;28;20458;-74
2022/12/14 09:42:55;;;;;;;38.37;29.47;;;;;;;;;;5095454;28;20824;-76
2022/12/14 09:45:26;;;;;;;35.63;28.03;;;;;;;;;;5101246;28;20439;-76
2022/12/14 09:47:58;;;;;;;42.47;31.93;;;;;;;;;;5095038;28;20996;-76
2022/12/14 09:50:25;;;;;;;42.47;29.50;;;;;;;;;;5097109;28;20468;-76
2022/12/14 09:52:54;;;;;;;38.77;29.47;;;;;;;;;;5097043;28;20447;-75
2022/12/14 09:55:25;;;;;;;39.20;28.80;;;;;;;;;;5099464;28;20539;-76
2022/12/14 09:57:56;;;;;;;38.97;29.00;;;;;;;;;;5094023;28;20444;-76
2022/12/14 10:00:23;;;;;;;38.80;30.17;;;;;;;;;;5093434;28;20454;-76
2022/12/14 10:02:59;;;;;;;44.90;30.97;;;;;;;;;;5092405;28;21331;-77
2022/12/14 10:05:32;;;;;;;36.70;28.60;;;;;;;;;;5093710;28;20935;-76
2022/12/14 10:08:03;;;;;;;35.13;29.00;;;;;;;;;;5098400;28;20432;-75
2022/12/14 10:10:34;;;;;;;41.63;30.60;;;;;;;;;;5097460;28;20491;-75
2022/12/14 10:13:06;;;;;;;41.03;27.60;;;;;;;;;;5097709;28;20444;-76
2022/12/14 10:15:36;;;;;;;43.23;30.77;;;;;;;;;;5105490;28;20468;-76
2022/12/14 10:18:18;;;;;;;44.00;29.70;;;;;;;;;;5093758;28;20447;-77
2022/12/14 10:20:49;;;;;;;39.67;29.87;;;;;;;;;;5085853;28;20445;-77
2022/12/14 10:23:19;;;;;;;36.73;28.37;;;;;;;;;;5076332;28;20451;-75
2022/12/14 10:25:47;;;;;;;40.70;29.47;;;;;;;;;;5091038;28;20505;-76
2022/12/14 10:28:18;;;;;;;43.57;30.60;;;;;;;;;;5083028;28;20428;-76
2022/12/14 10:30:45;;;;;;;45.03;30.97;;;;;;;;;;5075428;28;20470;-77
2022/12/14 10:33:17;;;;;;;40.67;30.83;;;;;;;;;;5084397;28;20509;-76
2022/12/14 10:35:48;;;;;;;42.87;31.40;;;;;;;;;;5071935;28;20479;-76
2022/12/14 10:38:18;;;;;;;39.83;29.30;;;;;;;;;;5071840;28;21015;-76
2022/12/14 10:40:49;;;;;;;39.20;30.83;;;;;;;;;;5083859;28;20436;-75
2022/12/14 10:43:23;;;;;;;41.53;30.57;;;;;;;;;;5079959;28;20437;-77
2022/12/14 10:45:55;;;;;;;44.10;31.10;;;;;;;;;;5089760;28;21049;-76
2022/12/14 10:48:28;;;;;;;45.87;33.23;;;;;;;;;;5083602;28;20435;-76
2022/12/14 10:50:57;;;;;;;44.60;32.53;;;;;;;;;;5072768;28;20480;-75
2022/12/14 10:53:28;;;;;;;46.30;31.23;;;;;;;;;;5072738;28;20448;-76
2022/12/14 10:55:59;;;;;;;43.53;31.57;;;;;;;;;;5091395;28;20468;-76
2022/12/14 10:58:27;;;;;;;46.37;31.83;;;;;;;;;;5091342;28;20803;-76
2022/12/14 11:00:54;;;;;;;40.33;30.83;;;;;;;;;;5091527;28;20463;-76
2022/12/14 11:03:21;;;;;;;45.70;32.87;;;;;;;;;;5079445;28;20437;-76
2022/12/14 11:05:54;;;;;;;41.07;31.27;;;;;;;;;;5070949;28;20984;-77
2022/12/14 11:08:38;;;;;;;43.33;32.43;;;;;;;;;;5071106;28;20531;-77
2022/12/14 11:11:08;;;;;;;44.13;29.53;;;;;;;;;;5072828;28;20499;-76
2022/12/14 11:13:36;;;;;;;43.60;32.43;;;;;;;;;;5074035;28;20452;-77
2022/12/14 11:16:17;;;;;;;43.37;33.03;;;;;;;;;;5071935;28;20572;-76
2022/12/14 11:18:45;;;;;;;42.40;31.20;;;;;;;;;;5072065;28;20432;-76
2022/12/14 11:21:15;;;;;;;48.20;33.10;;;;;;;;;;5071099;28;20452;-75
2022/12/14 11:23:44;;;;;;;41.97;30.97;;;;;;;;;;5080670;28;20447;-76
2022/12/14 11:26:12;;;;;;;46.53;33.03;;;;;;;;;;5091748;28;20483;-76
2022/12/14 11:28:46;;;;;;;38.60;31.57;;;;;;;;;;5091305;28;20439;-77
2022/12/14 11:31:14;;;;;;;45.10;33.43;;;;;;;;;;5094602;28;20467;-76
2022/12/14 11:33:47;;;;;;;42.60;31.70;;;;;;;;;;5091039;28;20443;-77
2022/12/14 11:36:24;;;;;;;41.30;32.50;;;;;;;;;;5095833;28;20619;-77
2022/12/14 11:38:55;;;;;;;45.60;33.63;;;;;;;;;;5092951;28;20420;-76
2022/12/14 11:41:22;;;;;;;42.87;33.40;;;;;;;;;;5091496;28;20421;-76
2022/12/14 11:44:01;;;;;;;40.73;32.00;;;;;;;;;;5090599;28;20444;-77
2022/12/14 11:46:41;;;;;;;46.83;33.23;;;;;;;;;;5090650;28;21176;-76
2022/12/14 11:49:18;;;;;;;45.30;33.73;;;;;;;;;;5090954;28;20443;-76
2022/12/14 11:51:54;;;;;;;41.67;32.50;;;;;;;;;;5091166;28;20439;-76
2022/12/14 11:54:21;;;;;;;43.47;34.03;;;;;;;;;;5091514;28;20428;-76
2022/12/14 11:56:50;;;;;;;46.10;33.50;;;;;;;;;;5092515;28;20463;-76
2022/12/14 11:59:19;;;;;;;44.10;33.83;;;;;;;;;;5092724;28;20538;-76
2022/12/14 12:01:46;;;;;;;46.90;34.87;;;;;;;;;;5092674;28;20424;-76
2022/12/14 12:04:15;;;;;;;42.97;33.23;;;;;;;;;;5091866;28;20546;-77
2022/12/14 12:06:43;;;;;;;42.47;32.53;;;;;;;;;;5093600;28;20472;-77
2022/12/14 12:09:18;;;;;;;45.57;33.30;;;;;;;;;;5097414;28;20455;-77
2022/12/14 12:11:45;;;;;;;42.07;33.37;;;;;;;;;;5094552;28;20442;-77
2022/12/14 12:14:23;;;;;;;47.67;34.03;;;;;;;;;;5092603;28;20435;-76
2022/12/14 12:16:52;;;;;;;46.80;34.07;;;;;;;;;;5091332;28;20455;-76
2022/12/14 12:19:22;;;;;;;43.67;33.53;;;;;;;;;;5104399;28;20447;-76
2022/12/14 12:21:49;;;;;;;50.53;34.73;;;;;;;;;;5111221;28;20446;-76
2022/12/14 12:24:18;;;;;;;47.73;33.63;;;;;;;;;;5110423;28;20446;-77
2022/12/14 12:26:49;;;;;;;43.60;33.97;;;;;;;;;;5111053;28;20462;-77
2022/12/14 12:29:17;;;;;;;46.10;33.67;;;;;;;;;;5111176;28;20434;-76
2022/12/14 12:31:48;;;;;;;46.33;32.90;;;;;;;;;;5111847;28;20461;-76
2022/12/14 12:34:19;;;;;;;47.50;32.77;;;;;;;;;;5115274;28;20491;-77
2022/12/14 12:36:48;;;;;;;43.87;32.90;;;;;;;;;;5090896;28;20469;-76
2022/12/14 12:39:16;;;;;;;42.93;32.27;;;;;;;;;;5095349;28;20448;-77
2022/12/14 12:41:47;;;;;;;43.70;34.53;;;;;;;;;;5094337;28;20451;-76
2022/12/14 12:44:19;;;;;;;48.10;34.13;;;;;;;;;;5094148;28;20439;-77
2022/12/14 12:46:54;;;;;;;43.60;33.13;;;;;;;;;;5095549;28;20820;-76
2022/12/14 12:49:22;;;;;;;41.50;31.77;;;;;;;;;;5095150;28;20432;-77
2022/12/14 12:51:53;;;;;;;45.53;34.00;;;;;;;;;;5087971;28;20469;-77
2022/12/14 12:54:23;;;;;;;45.07;32.37;;;;;;;;;;5095769;28;20493;-77
2022/12/14 12:56:51;;;;;;;42.57;33.50;;;;;;;;;;5096048;28;20464;-76
2022/12/14 12:59:19;;;;;;;44.37;34.73;;;;;;;;;;5095397;28;20455;-77
2022/12/14 13:01:48;;;;;;;46.27;33.47;;;;;;;;;;5096122;28;20462;-77
2022/12/14 13:04:23;;;;;;;47.47;34.13;;;;;;;;;;5096354;28;20444;-75
2022/12/14 13:06:53;;;;;;;44.53;33.50;;;;;;;;;;5097554;28;20474;-77
2022/12/14 13:09:28;;;;;;;54.60;33.53;;;;;;;;;;5099684;28;20428;-76
2022/12/14 13:11:55;;;;;;;46.60;33.73;;;;;;;;;;5102789;28;20422;-76
2022/12/14 13:14:27;;;;;;;50.20;34.80;;;;;;;;;;5097252;28;20807;-76
2022/12/14 13:16:55;;;;;;;50.03;32.60;;;;;;;;;;5095031;28;20468;-76
2022/12/14 13:19:26;;;;;;;47.17;35.33;;;;;;;;;;5094690;28;20444;-77
2022/12/14 13:21:55;;;;;;;46.53;34.23;;;;;;;;;;5095294;28;20428;-76
2022/12/14 13:24:22;;;;;;;45.97;33.60;;;;;;;;;;5094688;28;20439;-76
2022/12/14 13:27:04;;;;;;;46.20;34.00;;;;;;;;;;5093907;28;20452;-76
2022/12/14 13:29:39;;;;;;;41.53;31.33;;;;;;;;;;5090938;28;20456;-76
2022/12/14 13:32:10;;;;;;;46.10;34.10;;;;;;;;;;5093139;28;20424;-76
2022/12/14 13:34:42;;;;;;;46.00;33.80;;;;;;;;;;5092524;28;20966;-76
2022/12/14 13:37:23;;;;;;;45.63;32.43;;;;;;;;;;5092704;28;20510;-77
2022/12/14 13:40:15;;;;;;;44.50;32.67;;;;;;;;;;5093682;28;20428;-76
2022/12/14 13:42:45;;;;;;;44.73;32.30;;;;;;;;;;5093599;28;20425;-77
2022/12/14 13:45:17;;;;;;;45.70;34.10;;;;;;;;;;5092191;28;20453;-76
2022/12/14 13:47:47;;;;;;;52.20;35.27;;;;;;;;;;5092683;28;20499;-77
2022/12/14 13:50:25;;;;;;;53.77;37.10;;;;;;;;;;5092892;28;20564;-77
2022/12/14 13:52:56;;;;;;;50.57;35.63;;;;;;;;;;5092450;28;20424;-76
2022/12/14 13:55:27;;;;;;;47.83;35.90;;;;;;;;;;5092967;28;20555;-76
2022/12/14 13:57:55;;;;;;;52.80;38.77;;;;;;;;;;5091797;28;20432;-75
2022/12/14 14:00:37;;;;;;;58.97;36.60;;;;;;;;;;5091518;28;20454;-76
2022/12/14 14:03:04;;;;;;;53.60;35.80;;;;;;;;;;5090520;28;20436;-75
2022/12/14 14:05:38;;;;;;;49.13;34.03;;;;;;;;;;5093658;28;20471;-76
2022/12/14 14:08:27;;;;;;;50.10;34.80;;;;;;;;;;5096007;28;20440;-77
2022/12/14 14:10:54;;;;;;;44.73;32.83;;;;;;;;;;5093270;28;21018;-76
2022/12/14 14:13:41;;;;;;;52.53;34.80;;;;;;;;;;5092701;28;20808;-77
2022/12/14 14:16:12;;;;;;;46.83;33.07;;;;;;;;;;5092604;28;20527;-76
2022/12/14 14:18:48;;;;;;;48.20;34.63;;;;;;;;;;5092152;28;20454;-76
2022/12/14 14:21:30;;;;;;;54.37;33.50;;;;;;;;;;5092100;28;20443;-75
2022/12/14 14:23:59;;;;;;;290.97;191.20;;;;;;;;;;5091580;28;20452;-76
2022/12/14 14:26:28;;;;;;;53.73;34.40;;;;;;;;;;5092406;28;20567;-75
2022/12/14 14:29:06;;;;;;;41.73;30.40;;;;;;;;;;5091786;28;20446;-76
2022/12/14 14:31:51;;;;;;;48.77;33.27;;;;;;;;;;5091536;28;20502;-76
2022/12/14 14:34:20;;;;;;;44.23;32.50;;;;;;;;;;5090756;28;20455;-76
2022/12/14 14:36:47;;;;;;;46.73;32.33;;;;;;;;;;5091300;28;20460;-75
2022/12/14 14:39:35;;;;;;;44.40;32.40;;;;;;;;;;5091204;28;20445;-76
2022/12/14 14:42:03;;;;;;;44.20;31.53;;;;;;;;;;5091634;28;20471;-75
2022/12/14 14:44:36;;;;;;;46.70;31.37;;;;;;;;;;5090974;28;20970;-76